KR-0317 weather

Daewoo Trump Marine World Heliports
Busan, Busan Gwang'yeogsi, South Korea

Public forecast

Using degrees Celsius for public forecast. Weather courtesy of forecast.io.

Closest aviation weather report (METAR) to Daewoo Trump Marine World Heliports

Closest report is Gimhae International Airport, 10.2 nm (18.9 km) W. Retrieved 2019/10/18 12:00 UTC (10 minutes ago):

RKPK 181200Z 36007KT 9999 BKN020 BKN040 16/13 Q1018

Closest aviation forecast (TAF) to Daewoo Trump Marine World Heliports

Closest forecast is Gimhae International Airport, 10.2 nm (18.9 km) W. Retrieved 2019/10/18 12:00 UTC (10 minutes ago):

TAF RKPK 181100Z 1812/1918 36006KT 9999 BKN020 OVC040 TN14/1820Z TX21/1906Z BECMG 1817/1818 SCT020 BKN040 BECMG 1905/1906 SCT030